Time;durP1;ratioP1;P1;durP2;ratioP2;P2;SDS_P1;SDS_P2;PMS_P1;PMS_P2;Temp;Humidity;BMP_temperature;BMP_pressure;BME280_temperature;BME280_humidity;BME280_pressure;Samples;Min_cycle;Max_cycle;Signal;HPM_P1;HPM_P2
2022/09/18 00:01:25;;;;;;;0.50;0.30;;;25.50;68.10;;;;;;5063547;28;20016;-74
2022/09/18 00:03:57;;;;;;;0.70;0.20;;;25.50;68.10;;;;;;5068757;28;20036;-75
2022/09/18 00:06:28;;;;;;;0.88;0.17;;;25.40;68.30;;;;;;5069153;28;20546;-76
2022/09/18 00:08:57;;;;;;;1.45;0.25;;;24.70;68.70;;;;;;5070671;28;20044;-76
2022/09/18 00:11:28;;;;;;;0.20;0.17;;;24.50;70.30;;;;;;5065879;28;20474;-75
2022/09/18 00:13:57;;;;;;;1.75;0.40;;;24.40;70.10;;;;;;5064016;28;20064;-75
2022/09/18 00:16:25;;;;;;;1.15;0.10;;;24.70;70.20;;;;;;5072748;28;20020;-77
2022/09/18 00:18:53;;;;;;;0.60;0.10;;;25.10;69.70;;;;;;5066617;28;20078;-77
2022/09/18 00:21:23;;;;;;;0.47;0.10;;;25.30;71.30;;;;;;5071998;28;20024;-76
2022/09/18 00:23:53;;;;;;;2.08;0.20;;;25.40;69.90;;;;;;5066094;28;20387;-77
2022/09/18 00:26:20;;;;;;;1.13;0.20;;;25.70;68.70;;;;;;5070148;28;20490;-77
2022/09/18 00:28:48;;;;;;;0.82;0.20;;;26.00;68.80;;;;;;5067706;28;20098;-78
2022/09/18 00:31:24;;;;;;;0.35;0.25;;;26.70;69.60;;;;;;5070108;28;20074;-77
2022/09/18 00:33:53;;;;;;;1.33;0.10;;;27.20;70.10;;;;;;5064390;28;20047;-75
2022/09/18 00:36:20;;;;;;;0.20;0.10;;;26.90;65.60;;;;;;5059020;28;20028;-78
2022/09/18 00:38:49;;;;;;;0.88;0.13;;;26.70;66.70;;;;;;5057614;28;20033;-77
2022/09/18 00:41:22;;;;;;;0.52;0.10;;;26.20;68.20;;;;;;5059266;28;21496;-75
2022/09/18 00:43:51;;;;;;;0.70;0.17;;;26.00;67.40;;;;;;5058291;28;20081;-77
2022/09/18 00:46:30;;;;;;;0.03;0.03;;;26.40;68.40;;;;;;5057886;28;20511;-77
2022/09/18 00:49:38;;;;;;;1.17;0.10;;;27.00;69.80;;;;;;5055920;28;20042;-75
2022/09/18 00:52:06;;;;;;;1.15;0.30;;;27.60;68.20;;;;;;4963643;28;20035;-76
2022/09/18 00:54:42;;;;;;;0.98;0.20;;;28.00;67.40;;;;;;4958287;28;20585;-76
2022/09/18 00:57:34;;;;;;;1.65;0.10;;;28.00;67.00;;;;;;5026320;28;20032;-77
2022/09/18 01:00:10;;;;;;;0.65;0.10;;;28.20;67.30;;;;;;5062209;28;20063;-77
2022/09/18 01:02:43;;;;;;;0.73;0.20;;;28.00;67.10;;;;;;5069669;28;20028;-75
2022/09/18 01:05:13;;;;;;;0.45;0.35;;;28.10;68.70;;;;;;5066177;28;20032;-76
2022/09/18 01:08:06;;;;;;;1.08;0.15;;;28.10;66.80;;;;;;5069756;28;20530;-77
2022/09/18 01:10:55;;;;;;;0.00;0.00;;;28.40;69.90;;;;;;5067053;28;20044;-78
2022/09/18 01:13:37;;;;;;;0.90;0.10;;;28.50;66.70;;;;;;5069556;28;20417;-78
2022/09/18 01:16:21;;;;;;;0.70;0.10;;;28.60;67.00;;;;;;5069558;28;20028;-78
2022/09/18 01:19:19;;;;;;;0.65;0.20;;;28.40;65.90;;;;;;5062134;28;20028;-79
2022/09/18 01:22:13;;;;;;;0.10;0.00;;;28.00;66.30;;;;;;5067621;28;20033;-78
2022/09/18 01:24:58;;;;;;;0.22;0.00;;;28.10;68.30;;;;;;5058667;28;20021;-78
2022/09/18 01:27:42;;;;;;;0.63;0.20;;;28.20;66.80;;;;;;5070867;28;20043;-77
2022/09/18 01:30:12;;;;;;;1.00;0.05;;;28.10;65.80;;;;;;5067932;28;20503;-76
2022/09/18 01:33:03;;;;;;;0.80;0.10;;;27.70;67.50;;;;;;5070423;28;20134;-78
2022/09/18 01:35:52;;;;;;;1.48;0.10;;;27.60;66.20;;;;;;5073405;28;20027;-76
2022/09/18 01:38:28;;;;;;;0.10;0.10;;;27.40;65.90;;;;;;5057005;28;20035;-77
2022/09/18 01:41:15;;;;;;;1.30;0.10;;;27.00;63.40;;;;;;5058343;28;20048;-75
2022/09/18 01:43:43;;;;;;;0.50;0.13;;;27.10;65.40;;;;;;5057873;28;20554;-77
2022/09/18 01:46:15;;;;;;;0.35;0.15;;;27.10;63.70;;;;;;5055851;28;20160;-76
2022/09/18 01:48:52;;;;;;;0.30;0.20;;;26.50;64.10;;;;;;5057195;28;20048;-77
2022/09/18 01:51:42;;;;;;;0.10;0.10;;;26.60;63.90;;;;;;5056378;28;20039;-76
2022/09/18 01:54:20;;;;;;;1.38;0.40;;;26.90;65.80;;;;;;5058726;28;20064;-76
2022/09/18 01:57:11;;;;;;;2.17;0.30;;;27.00;64.20;;;;;;5062383;28;20036;-76
2022/09/18 01:59:44;;;;;;;0.17;0.10;;;27.20;63.40;;;;;;5057696;28;20352;-76
2022/09/18 02:02:22;;;;;;;0.50;0.10;;;26.90;64.10;;;;;;5057145;28;20059;-78
2022/09/18 02:04:54;;;;;;;0.55;0.10;;;26.70;63.00;;;;;;5061758;28;20044;-76
2022/09/18 02:07:40;;;;;;;0.30;0.20;;;26.50;64.70;;;;;;5056721;28;20441;-77
2022/09/18 02:10:08;;;;;;;0.32;0.10;;;26.00;63.90;;;;;;5057125;28;20180;-75
2022/09/18 02:12:38;;;;;;;1.65;0.15;;;25.60;65.10;;;;;;5057762;28;20032;-76
2022/09/18 02:15:10;;;;;;;0.60;0.40;;;26.00;64.90;;;;;;5058100;28;20039;-74
2022/09/18 02:17:52;;;;;;;0.80;0.10;;;26.30;66.10;;;;;;5062884;28;20093;-74
2022/09/18 02:20:24;;;;;;;0.43;0.17;;;26.40;64.80;;;;;;5067757;28;20032;-76
2022/09/18 02:22:56;;;;;;;0.50;0.20;;;26.10;63.80;;;;;;5067529;28;20032;-78
2022/09/18 02:25:35;;;;;;;0.98;0.28;;;26.10;63.80;;;;;;5059100;28;20234;-75
2022/09/18 02:28:05;;;;;;;1.98;0.52;;;26.00;63.00;;;;;;5062996;28;20040;-77
2022/09/18 02:30:33;;;;;;;0.95;0.38;;;25.60;63.60;;;;;;5056628;28;20133;-81
2022/09/18 02:33:01;;;;;;;0.82;0.20;;;25.40;63.30;;;;;;5062576;28;20037;-76
2022/09/18 02:35:42;;;;;;;1.55;0.28;;;25.40;64.50;;;;;;5055051;28;20089;-76
2022/09/18 02:38:31;;;;;;;1.38;0.20;;;25.60;63.60;;;;;;5063225;28;20036;-75
2022/09/18 02:41:02;;;;;;;1.92;0.22;;;25.70;63.90;;;;;;5065566;28;20032;-74
2022/09/18 02:43:45;;;;;;;0.88;0.50;;;25.90;62.80;;;;;;5068099;28;20082;-75
2022/09/18 02:46:18;;;;;;;1.38;0.30;;;25.70;63.30;;;;;;5068688;28;20052;-76
2022/09/18 02:48:58;;;;;;;1.15;0.38;;;26.10;63.50;;;;;;5064731;28;20507;-77
2022/09/18 02:51:35;;;;;;;1.50;0.30;;;26.30;63.50;;;;;;5065688;28;20025;-77
2022/09/18 02:54:30;;;;;;;0.22;0.17;;;26.80;64.40;;;;;;5066142;28;20483;-76
2022/09/18 02:57:01;;;;;;;0.30;0.20;;;26.90;63.20;;;;;;5064398;28;20082;-76
2022/09/18 02:59:44;;;;;;;2.17;0.20;;;27.20;62.90;;;;;;5064800;28;20038;-77
2022/09/18 03:02:15;;;;;;;2.03;0.20;;;27.00;62.50;;;;;;5068053;28;20029;-78
2022/09/18 03:04:43;;;;;;;1.65;0.20;;;26.90;62.50;;;;;;5064517;28;20040;-80
2022/09/18 03:07:13;;;;;;;0.75;0.22;;;27.10;63.20;;;;;;5064743;28;20045;-79
2022/09/18 03:09:41;;;;;;;1.05;0.10;;;27.20;63.40;;;;;;5065698;28;20031;-75
2022/09/18 03:12:08;;;;;;;0.45;0.20;;;27.10;63.00;;;;;;5064716;28;20474;-75
2022/09/18 03:14:36;;;;;;;0.85;0.40;;;26.90;62.50;;;;;;5064374;28;20082;-76
2022/09/18 03:17:04;;;;;;;3.30;0.25;;;26.70;62.70;;;;;;5065040;28;20043;-76
2022/09/18 03:19:31;;;;;;;2.22;0.30;;;26.90;62.60;;;;;;5063912;28;20154;-75
2022/09/18 03:21:58;;;;;;;0.75;0.20;;;26.70;62.40;;;;;;5065984;28;20050;-77
2022/09/18 03:24:26;;;;;;;1.13;0.20;;;26.80;63.30;;;;;;5062725;28;20184;-78
2022/09/18 03:26:53;;;;;;;1.58;0.30;;;27.10;62.60;;;;;;5065738;28;20024;-76
2022/09/18 03:29:21;;;;;;;0.55;0.20;;;27.30;61.80;;;;;;5066597;28;20577;-76
2022/09/18 03:31:48;;;;;;;0.17;0.05;;;27.20;61.60;;;;;;5065686;28;20049;-78
2022/09/18 03:34:16;;;;;;;2.85;0.38;;;27.40;63.00;;;;;;5064778;28;20067;-76
2022/09/18 03:36:44;;;;;;;0.20;0.13;;;27.30;60.80;;;;;;5063973;28;20031;-77
2022/09/18 03:39:11;;;;;;;0.60;0.20;;;26.60;60.30;;;;;;5065795;28;20036;-76
2022/09/18 03:41:39;;;;;;;1.15;0.28;;;25.80;61.80;;;;;;5067507;28;20032;-76
2022/09/18 03:44:06;;;;;;;0.55;0.10;;;25.90;62.40;;;;;;5062679;28;20094;-74
2022/09/18 03:46:34;;;;;;;0.50;0.20;;;26.00;62.30;;;;;;5065092;28;20445;-80
2022/09/18 03:49:01;;;;;;;1.20;0.20;;;26.10;62.10;;;;;;5067070;28;20037;-75
2022/09/18 03:51:29;;;;;;;0.30;0.20;;;26.00;61.30;;;;;;5067499;28;20032;-76
2022/09/18 03:53:56;;;;;;;0.47;0.20;;;25.60;62.50;;;;;;5064789;28;20111;-74
2022/09/18 03:56:23;;;;;;;0.77;0.30;;;25.70;63.70;;;;;;5063224;28;20368;-74
2022/09/18 03:58:52;;;;;;;1.88;0.20;;;25.90;63.20;;;;;;5062667;28;20056;-78
2022/09/18 04:01:19;;;;;;;0.93;0.38;;;26.00;61.70;;;;;;5064979;28;20123;-75
2022/09/18 04:03:48;;;;;;;1.25;0.35;;;25.60;61.50;;;;;;5062516;28;20039;-76
2022/09/18 04:06:15;;;;;;;0.90;0.25;;;25.40;61.90;;;;;;5067080;28;20029;-75
2022/09/18 04:08:42;;;;;;;2.63;0.52;;;25.30;62.00;;;;;;5065077;28;20088;-77
2022/09/18 04:11:10;;;;;;;0.20;0.15;;;25.00;62.00;;;;;;5065692;28;20036;-75
2022/09/18 04:13:37;;;;;;;0.40;0.40;;;25.00;62.40;;;;;;5065991;28;20081;-78
2022/09/18 04:16:05;;;;;;;0.57;0.20;;;25.00;63.20;;;;;;5066231;28;20024;-78
2022/09/18 04:18:32;;;;;;;0.85;0.30;;;25.30;63.30;;;;;;5066431;28;20078;-76
2022/09/18 04:21:00;;;;;;;1.30;0.20;;;25.70;62.70;;;;;;5065397;28;20115;-76
2022/09/18 04:23:27;;;;;;;0.75;0.20;;;25.50;62.10;;;;;;5063634;28;20422;-77
2022/09/18 04:25:54;;;;;;;1.75;0.25;;;25.40;62.90;;;;;;5063500;28;21846;-76
2022/09/18 04:28:23;;;;;;;0.68;0.22;;;25.40;62.90;;;;;;5064652;28;20340;-76
2022/09/18 04:30:50;;;;;;;0.20;0.05;;;25.50;62.90;;;;;;5064717;28;20020;-76
2022/09/18 04:33:18;;;;;;;2.10;0.32;;;25.80;64.00;;;;;;5067416;28;20078;-76
2022/09/18 04:35:45;;;;;;;0.40;0.10;;;26.00;63.00;;;;;;5067072;28;20037;-76
2022/09/18 04:38:13;;;;;;;0.20;0.10;;;26.00;62.50;;;;;;5071309;28;20390;-77
2022/09/18 04:40:40;;;;;;;0.85;0.20;;;25.90;61.80;;;;;;5068161;28;20116;-76
2022/09/18 04:43:09;;;;;;;0.57;0.10;;;25.70;62.00;;;;;;5070914;28;20051;-78
2022/09/18 04:45:36;;;;;;;0.63;0.10;;;25.80;60.70;;;;;;5068222;28;20020;-76
2022/09/18 04:48:04;;;;;;;1.77;0.10;;;25.60;62.00;;;;;;5066413;28;20445;-78
2022/09/18 04:50:31;;;;;;;1.98;0.70;;;25.50;61.60;;;;;;5070163;28;20024;-80
2022/09/18 04:52:58;;;;;;;0.93;0.20;;;25.50;62.50;;;;;;5067347;28;20508;-77
2022/09/18 04:55:26;;;;;;;1.38;0.32;;;25.40;62.20;;;;;;5068772;28;20558;-76
2022/09/18 04:57:53;;;;;;;0.40;0.20;;;25.40;62.80;;;;;;5070776;28;20087;-76
2022/09/18 05:00:21;;;;;;;1.45;0.75;;;25.30;62.30;;;;;;5068282;28;20383;-77
2022/09/18 05:02:48;;;;;;;2.55;0.85;;;25.20;62.80;;;;;;5067565;28;20090;-76
2022/09/18 05:05:16;;;;;;;0.98;0.30;;;25.10;62.10;;;;;;5066409;28;20025;-75
2022/09/18 05:07:43;;;;;;;0.30;0.13;;;25.00;62.40;;;;;;5065663;28;20045;-76
2022/09/18 05:10:10;;;;;;;1.27;0.20;;;24.80;62.60;;;;;;5068596;28;20024;-79
2022/09/18 05:12:43;;;;;;;0.90;0.20;;;24.50;62.60;;;;;;5067944;28;20100;-76
2022/09/18 05:15:11;;;;;;;1.48;0.30;;;24.40;63.70;;;;;;5066252;28;20103;-75
2022/09/18 05:17:39;;;;;;;0.90;0.20;;;24.30;64.40;;;;;;5068249;28;20132;-75
2022/09/18 05:20:08;;;;;;;1.25;0.43;;;24.40;64.50;;;;;;5068573;28;20028;-74
2022/09/18 05:22:35;;;;;;;0.82;0.17;;;24.10;63.40;;;;;;5066275;28;20074;-74
2022/09/18 05:25:03;;;;;;;5.57;0.20;;;24.10;64.00;;;;;;5068003;28;20056;-76
2022/09/18 05:27:32;;;;;;;1.02;0.10;;;23.90;64.60;;;;;;5064616;28;20438;-76
2022/09/18 05:29:59;;;;;;;0.40;0.20;;;23.90;64.10;;;;;;5064274;28;20028;-76
2022/09/18 05:32:26;;;;;;;1.20;0.30;;;23.90;63.90;;;;;;5065723;28;20059;-75
2022/09/18 05:34:54;;;;;;;1.10;0.35;;;23.90;63.60;;;;;;5065238;28;20425;-75
2022/09/18 05:37:21;;;;;;;1.05;0.40;;;23.80;63.80;;;;;;5067501;28;20017;-75
2022/09/18 05:39:48;;;;;;;2.00;0.38;;;23.80;65.00;;;;;;5068831;28;20040;-74
2022/09/18 05:42:15;;;;;;;1.05;0.28;;;23.90;64.50;;;;;;5068172;28;20079;-79
2022/09/18 05:44:43;;;;;;;1.35;0.20;;;23.90;64.80;;;;;;5067841;28;20033;-74
2022/09/18 05:47:10;;;;;;;0.22;0.22;;;23.80;64.00;;;;;;5064372;28;20039;-75
2022/09/18 05:49:37;;;;;;;1.08;0.40;;;23.60;64.80;;;;;;5069071;28;20024;-76
2022/09/18 05:52:05;;;;;;;1.95;0.30;;;23.20;64.50;;;;;;5070664;28;20383;-76
2022/09/18 05:54:35;;;;;;;2.95;0.93;;;23.00;65.50;;;;;;5066810;28;20025;-76
2022/09/18 05:57:02;;;;;;;0.38;0.15;;;22.90;66.50;;;;;;5065379;28;20028;-75
2022/09/18 05:59:29;;;;;;;1.33;0.30;;;23.00;66.40;;;;;;5066102;28;20029;-78
2022/09/18 06:01:56;;;;;;;1.95;0.22;;;23.00;65.90;;;;;;5067851;28;20060;-76
2022/09/18 06:04:24;;;;;;;1.85;0.20;;;23.10;66.20;;;;;;5066123;28;20020;-81
2022/09/18 06:06:51;;;;;;;3.42;0.60;;;23.20;66.60;;;;;;5072633;28;20116;-81
2022/09/18 06:09:19;;;;;;;1.95;0.28;;;23.30;66.40;;;;;;5061687;28;20071;-82
2022/09/18 06:11:46;;;;;;;2.38;0.35;;;23.30;66.50;;;;;;5068219;28;20379;-79
2022/09/18 06:14:14;;;;;;;1.00;0.20;;;23.00;66.90;;;;;;5064054;28;20021;-79
2022/09/18 06:16:42;;;;;;;0.85;0.30;;;23.00;67.10;;;;;;5069986;28;20057;-81
2022/09/18 06:19:10;;;;;;;0.77;0.30;;;23.00;67.60;;;;;;5036915;28;20036;-82
2022/09/18 06:21:37;;;;;;;0.68;0.30;;;23.00;66.70;;;;;;5051465;28;20013;-80
2022/09/18 06:24:04;;;;;;;2.50;0.28;;;22.80;67.10;;;;;;5061697;28;20024;-81
2022/09/18 06:26:35;;;;;;;0.45;0.20;;;22.70;66.70;;;;;;5070073;28;20100;-83
2022/09/18 06:29:02;;;;;;;1.65;0.20;;;22.40;66.80;;;;;;5069067;28;20065;-82
2022/09/18 06:31:30;;;;;;;2.17;0.40;;;22.20;67.30;;;;;;5067905;28;20044;-74
2022/09/18 06:33:57;;;;;;;1.85;0.30;;;22.00;67.10;;;;;;5067481;28;20490;-80
2022/09/18 06:36:25;;;;;;;1.30;0.20;;;21.80;67.20;;;;;;5067520;28;20024;-80
2022/09/18 06:38:52;;;;;;;2.75;0.30;;;21.80;67.40;;;;;;5068388;28;20107;-78
2022/09/18 06:41:19;;;;;;;1.17;0.38;;;21.80;67.70;;;;;;5061751;28;20032;-80
2022/09/18 06:43:49;;;;;;;1.67;0.30;;;21.80;68.20;;;;;;5063780;28;20032;-81
2022/09/18 06:46:16;;;;;;;1.38;0.50;;;21.80;68.00;;;;;;5055246;28;20059;-81
2022/09/18 06:48:44;;;;;;;1.33;0.20;;;21.70;68.00;;;;;;5063472;28;20037;-82
2022/09/18 06:51:11;;;;;;;2.80;0.65;;;21.70;68.20;;;;;;5067669;28;20029;-81
2022/09/18 06:53:39;;;;;;;0.73;0.30;;;21.60;67.50;;;;;;5055871;28;20032;-79
2022/09/18 06:56:06;;;;;;;0.70;0.20;;;21.60;66.50;;;;;;5062243;28;20025;-80
2022/09/18 06:58:33;;;;;;;1.27;0.50;;;21.50;67.00;;;;;;5067971;28;20414;-81
2022/09/18 07:01:01;;;;;;;2.90;0.52;;;21.40;67.10;;;;;;5059868;28;20026;-80
2022/09/18 07:03:28;;;;;;;1.95;0.20;;;21.40;66.60;;;;;;5059837;28;20032;-80
2022/09/18 07:05:56;;;;;;;5.15;0.60;;;21.30;66.90;;;;;;5062223;28;20467;-81
2022/09/18 07:08:23;;;;;;;1.00;0.50;;;21.20;67.50;;;;;;5068796;28;20032;-80
2022/09/18 07:10:51;;;;;;;1.17;0.52;;;21.10;67.80;;;;;;5082046;28;20027;-82
2022/09/18 07:13:18;;;;;;;1.83;0.43;;;21.00;67.90;;;;;;5062676;28;20028;-79
2022/09/18 07:15:49;;;;;;;0.65;0.30;;;20.90;68.40;;;;;;5068561;28;20024;-80
2022/09/18 07:18:16;;;;;;;0.38;0.10;;;20.80;68.30;;;;;;5066796;28;20426;-79
2022/09/18 07:20:43;;;;;;;1.27;0.40;;;20.60;68.00;;;;;;5060758;28;20036;-81
2022/09/18 07:23:11;;;;;;;0.63;0.20;;;20.50;68.40;;;;;;5061158;28;20029;-82
2022/09/18 07:25:38;;;;;;;2.47;0.20;;;20.40;68.80;;;;;;5062746;28;20029;-79
2022/09/18 07:28:07;;;;;;;1.17;0.20;;;20.30;69.60;;;;;;5054181;28;20037;-80
2022/09/18 07:30:36;;;;;;;1.15;0.20;;;20.20;69.90;;;;;;5058625;28;20032;-80
2022/09/18 07:33:05;;;;;;;0.20;0.10;;;20.10;69.80;;;;;;5058039;28;20029;-80
2022/09/18 07:35:33;;;;;;;2.53;0.20;;;20.00;68.90;;;;;;5062800;28;20101;-82
2022/09/18 07:38:01;;;;;;;0.43;0.08;;;19.90;69.60;;;;;;5061214;28;20044;-80
2022/09/18 07:40:30;;;;;;;1.20;0.45;;;19.80;69.70;;;;;;5055016;28;20133;-79
2022/09/18 07:43:05;;;;;;;1.05;0.10;;;19.70;69.70;;;;;;5060447;28;20380;-79
2022/09/18 07:45:34;;;;;;;0.45;0.10;;;19.60;70.20;;;;;;5062046;28;20509;-80
2022/09/18 07:48:03;;;;;;;0.50;0.10;;;19.50;70.50;;;;;;5064428;28;20052;-81
2022/09/18 07:50:31;;;;;;;1.98;0.25;;;19.40;70.40;;;;;;5061696;28;20028;-80
2022/09/18 07:53:04;;;;;;;0.55;0.25;;;19.30;70.40;;;;;;5066885;28;20502;-80
2022/09/18 07:55:33;;;;;;;0.63;0.25;;;19.30;70.80;;;;;;5063232;28;20051;-81
2022/09/18 07:58:05;;;;;;;1.13;0.25;;;19.20;71.10;;;;;;5077674;28;20111;-80
2022/09/18 08:00:35;;;;;;;2.38;0.50;;;19.10;70.80;;;;;;5074025;28;20046;-80
2022/09/18 08:03:11;;;;;;;1.15;0.38;;;19.10;70.50;;;;;;5081370;28;20084;-80
2022/09/18 08:05:40;;;;;;;0.75;0.20;;;19.10;70.50;;;;;;5067396;28;20528;-83
2022/09/18 08:08:11;;;;;;;3.10;0.28;;;19.00;70.10;;;;;;5073936;28;20087;-81
2022/09/18 08:10:40;;;;;;;0.77;0.30;;;18.90;70.20;;;;;;5058771;28;20028;-81
2022/09/18 08:13:08;;;;;;;2.08;0.35;;;18.90;70.50;;;;;;5060221;28;20029;-82
2022/09/18 08:15:38;;;;;;;0.93;0.20;;;18.90;70.20;;;;;;5064110;28;20032;-83
2022/09/18 08:18:07;;;;;;;1.23;0.20;;;18.80;70.20;;;;;;5069897;28;20028;-83
2022/09/18 08:20:35;;;;;;;2.45;0.40;;;18.80;70.30;;;;;;5060976;28;20029;-80
2022/09/18 08:23:04;;;;;;;0.68;0.30;;;18.80;70.60;;;;;;5069647;28;20130;-81
2022/09/18 08:25:31;;;;;;;0.60;0.25;;;18.70;70.50;;;;;;5069370;28;20029;-80
2022/09/18 08:28:03;;;;;;;0.98;0.20;;;18.70;70.90;;;;;;5058918;28;20380;-79
2022/09/18 08:30:31;;;;;;;1.20;0.50;;;18.60;71.50;;;;;;5036676;28;20040;-80
2022/09/18 08:33:04;;;;;;;3.42;0.38;;;18.50;71.80;;;;;;5068953;28;20044;-80
2022/09/18 08:35:32;;;;;;;1.02;0.30;;;18.40;72.10;;;;;;5058807;28;20086;-84
2022/09/18 08:38:01;;;;;;;1.25;0.30;;;18.30;72.60;;;;;;5055478;28;20033;-80
2022/09/18 08:40:56;;;;;;;1.63;0.73;;;18.10;72.90;;;;;;5068587;28;20673;-83
2022/09/18 08:43:52;;;;;;;1.13;0.20;;;18.00;73.20;;;;;;5054757;28;20021;-82
2022/09/18 08:46:39;;;;;;;0.65;0.32;;;18.00;73.70;;;;;;5054725;28;20048;-82
2022/09/18 08:49:29;;;;;;;1.50;0.47;;;17.90;74.10;;;;;;5046479;28;20037;-80
2022/09/18 08:52:03;;;;;;;1.02;0.30;;;17.90;74.20;;;;;;5055328;28;20495;-81
2022/09/18 08:54:50;;;;;;;4.38;0.45;;;17.80;75.10;;;;;;5061915;28;20025;-78
2022/09/18 08:57:28;;;;;;;2.28;0.50;;;17.70;74.40;;;;;;5078799;28;20039;-79
2022/09/18 09:00:06;;;;;;;0.77;0.40;;;17.70;74.50;;;;;;5061694;28;20559;-80
2022/09/18 09:02:44;;;;;;;1.80;0.43;;;17.60;74.90;;;;;;5067166;28;20028;-79
2022/09/18 09:05:18;;;;;;;2.00;0.75;;;17.60;75.10;;;;;;5064841;28;20254;-79
2022/09/18 09:08:01;;;;;;;2.85;0.63;;;17.50;75.00;;;;;;5064853;28;20041;-79
2022/09/18 09:10:54;;;;;;;1.58;0.60;;;17.50;75.20;;;;;;5050100;28;20479;-79
2022/09/18 09:13:42;;;;;;;2.95;0.80;;;17.40;76.70;;;;;;5058695;28;20065;-81
2022/09/18 09:16:34;;;;;;;0.93;0.60;;;17.20;76.70;;;;;;5072178;28;20036;-82
2022/09/18 09:19:24;;;;;;;2.13;0.65;;;17.10;77.10;;;;;;5064628;28;20039;-82
2022/09/18 09:22:16;;;;;;;1.98;0.40;;;17.00;77.70;;;;;;5061718;28;20024;-80
2022/09/18 09:24:49;;;;;;;2.08;1.00;;;16.80;78.50;;;;;;5055998;28;20041;-80
2022/09/18 09:27:25;;;;;;;2.83;1.67;;;16.70;78.80;;;;;;5060060;28;20039;-82
2022/09/18 09:30:03;;;;;;;1.10;0.85;;;16.60;79.80;;;;;;5053997;28;20041;-81
2022/09/18 09:32:39;;;;;;;1.20;0.70;;;16.40;79.50;;;;;;5060177;28;20071;-77
2022/09/18 09:35:36;;;;;;;2.83;0.95;;;16.30;79.60;;;;;;5058787;28;20116;-81
2022/09/18 09:38:15;;;;;;;;;;;16.30;78.50;;;;;;5066275;28;20085;-80
2022/09/18 09:40:48;;;;;;;3.55;0.50;;;16.30;78.60;;;;;;5054680;28;19962;-79
2022/09/18 09:43:41;;;;;;;0.65;0.40;;;16.30;78.20;;;;;;5053883;28;20040;-81
2022/09/18 09:46:36;;;;;;;1.77;0.85;;;16.30;78.50;;;;;;5049478;28;20032;-78
2022/09/18 09:49:23;;;;;;;2.15;0.77;;;16.30;79.50;;;;;;5064938;28;20132;-79
2022/09/18 09:52:00;;;;;;;3.08;0.57;;;16.20;79.90;;;;;;5065244;28;20032;-81
2022/09/18 09:54:27;;;;;;;1.08;0.30;;;16.10;79.90;;;;;;5063053;28;20024;-81
2022/09/18 09:57:05;;;;;;;2.88;1.17;;;16.20;78.00;;;;;;5058757;28;20051;-81
2022/09/18 09:59:54;;;;;;;0.68;0.20;;;16.30;78.20;;;;;;5062965;28;20484;-79
2022/09/18 10:02:52;;;;;;;1.70;0.40;;;16.50;77.30;;;;;;5057359;28;20021;-79
2022/09/18 10:05:39;;;;;;;0.82;0.47;;;16.60;77.20;;;;;;5079068;28;20475;-81
2022/09/18 10:08:44;;;;;;;8.55;3.85;;;16.60;77.50;;;;;;5068887;28;20525;-80
2022/09/18 10:11:13;;;;;;;3.53;0.90;;;16.60;77.90;;;;;;5020231;28;20037;-79
2022/09/18 10:13:43;;;;;;;1.40;0.40;;;16.60;78.20;;;;;;5075853;28;20037;-78
2022/09/18 10:16:19;;;;;;;7.82;1.40;;;16.50;77.90;;;;;;5069237;28;20020;-80
2022/09/18 10:18:48;;;;;;;0.90;0.35;;;16.50;78.10;;;;;;5065869;28;20178;-81
2022/09/18 10:21:25;;;;;;;1.52;0.40;;;16.50;78.30;;;;;;5064724;28;20448;-76
2022/09/18 10:24:01;;;;;;;1.25;0.43;;;16.50;78.90;;;;;;5051668;28;20033;-78
2022/09/18 10:27:01;;;;;;;0.60;0.30;;;16.40;79.50;;;;;;5054458;28;20021;-80
2022/09/18 10:29:28;;;;;;;0.80;0.40;;;16.30;80.20;;;;;;5058344;28;20470;-80
2022/09/18 10:32:00;;;;;;;2.28;0.50;;;16.10;80.60;;;;;;5054106;28;20059;-79
2022/09/18 10:34:48;;;;;;;0.50;0.35;;;16.00;81.20;;;;;;5072224;28;20052;-79
2022/09/18 10:37:18;;;;;;;1.80;0.70;;;15.90;81.90;;;;;;5070758;28;20028;-82
2022/09/18 10:39:56;;;;;;;1.63;0.50;;;15.70;82.00;;;;;;5071663;28;20228;-82
2022/09/18 10:42:29;;;;;;;1.30;0.50;;;15.60;81.50;;;;;;5065809;28;20029;-82
2022/09/18 10:45:01;;;;;;;2.55;0.22;;;15.60;81.50;;;;;;5055052;28;20037;-83
2022/09/18 10:47:30;;;;;;;2.05;0.30;;;15.60;82.00;;;;;;5071098;28;20020;-79
2022/09/18 10:50:10;;;;;;;2.60;0.30;;;15.50;82.50;;;;;;5063751;28;20024;-77
2022/09/18 10:52:42;;;;;;;0.73;0.50;;;15.50;82.40;;;;;;5064702;28;20107;-78
2022/09/18 10:55:11;;;;;;;0.75;0.20;;;15.50;82.50;;;;;;5050514;28;20506;-77
2022/09/18 10:57:59;;;;;;;2.92;0.45;;;15.40;83.00;;;;;;5069390;28;20514;-79
2022/09/18 11:00:32;;;;;;;2.15;0.55;;;15.40;83.30;;;;;;5055477;28;20028;-77
2022/09/18 11:03:19;;;;;;;3.60;0.57;;;15.20;84.20;;;;;;5066482;28;20021;-78
2022/09/18 11:05:52;;;;;;;1.90;0.55;;;15.10;85.60;;;;;;5068965;28;20029;-78
2022/09/18 11:08:24;;;;;;;4.65;1.73;;;15.00;86.30;;;;;;5065663;28;20117;-79
2022/09/18 11:11:02;;;;;;;2.67;1.38;;;14.90;85.60;;;;;;5054338;28;20033;-77
2022/09/18 11:13:30;;;;;;;3.67;2.00;;;14.80;86.80;;;;;;5073302;28;20110;-78
2022/09/18 11:16:01;;;;;;;2.95;1.58;;;14.70;86.90;;;;;;5065904;28;20434;-79
2022/09/18 11:18:31;;;;;;;2.40;1.00;;;14.60;88.20;;;;;;5056831;28;20052;-81
2022/09/18 11:21:03;;;;;;;2.35;1.25;;;14.50;87.90;;;;;;5058930;28;20029;-78
2022/09/18 11:23:31;;;;;;;3.20;1.05;;;14.50;87.80;;;;;;5055488;28;20035;-78
2022/09/18 11:26:19;;;;;;;3.30;1.00;;;14.60;86.90;;;;;;5055931;28;20032;-78
2022/09/18 11:29:15;;;;;;;1.30;0.30;;;14.70;86.70;;;;;;5054880;28;20044;-79
2022/09/18 11:32:10;;;;;;;1.70;0.40;;;14.90;86.60;;;;;;5054267;28;20148;-80
2022/09/18 11:34:44;;;;;;;3.22;1.65;;;15.20;85.80;;;;;;5056281;28;20025;-79
2022/09/18 11:37:31;;;;;;;2.95;0.60;;;15.50;85.50;;;;;;5064708;28;20546;-79
2022/09/18 11:40:21;;;;;;;1.95;0.88;;;15.50;85.60;;;;;;5052314;28;20036;-81
2022/09/18 11:42:51;;;;;;;1.45;0.38;;;15.50;85.70;;;;;;5056850;28;20052;-82
2022/09/18 11:46:08;;;;;;;3.13;1.10;;;15.50;86.00;;;;;;5055710;28;20028;-81
2022/09/18 11:48:48;;;;;;;5.97;0.70;;;15.50;86.30;;;;;;5051499;28;20132;-80
2022/09/18 11:51:26;;;;;;;2.45;0.60;;;15.40;86.60;;;;;;5055355;28;20031;-78
2022/09/18 11:54:05;;;;;;;1.45;0.32;;;15.40;86.80;;;;;;5057106;28;20035;-80
2022/09/18 11:56:53;;;;;;;2.05;0.30;;;15.30;86.90;;;;;;5063146;28;20044;-82
2022/09/18 11:59:44;;;;;;;1.67;0.70;;;15.30;87.30;;;;;;5067538;28;20021;-80
2022/09/18 12:02:32;;;;;;;2.13;0.60;;;15.30;87.60;;;;;;5054808;28;20036;-79
2022/09/18 12:05:20;;;;;;;2.53;0.57;;;15.20;87.70;;;;;;5064052;28;20050;-81
2022/09/18 12:08:08;;;;;;;1.55;0.65;;;15.20;87.90;;;;;;5071059;28;20039;-79
2022/09/18 12:11:03;;;;;;;1.42;0.63;;;15.10;88.20;;;;;;5063811;28;20472;-82
2022/09/18 12:13:46;;;;;;;5.90;0.40;;;15.10;88.60;;;;;;5065418;28;20032;-80
2022/09/18 12:17:05;;;;;;;3.97;0.60;;;15.00;88.70;;;;;;5062012;28;21486;-80
2022/09/18 12:19:51;;;;;;;0.80;0.20;;;15.00;89.20;;;;;;5034101;28;20398;-78
2022/09/18 12:22:51;;;;;;;1.65;0.40;;;15.10;88.80;;;;;;5072105;28;20024;-79
2022/09/18 12:25:23;;;;;;;2.03;0.35;;;15.10;88.90;;;;;;5043739;28;20048;-79
2022/09/18 12:28:01;;;;;;;1.50;0.45;;;15.10;89.20;;;;;;5058718;28;20476;-79
2022/09/18 12:31:06;;;;;;;1.60;0.40;;;15.10;89.70;;;;;;5050356;28;20036;-78
2022/09/18 12:34:01;;;;;;;2.88;0.65;;;15.00;89.80;;;;;;5054360;28;20103;-80
2022/09/18 12:36:55;;;;;;;1.75;0.35;;;14.90;90.10;;;;;;5070831;28;20028;-79
2022/09/18 12:40:03;;;;;;;0.70;0.35;;;14.90;90.20;;;;;;5070137;28;20021;-81
2022/09/18 12:43:05;;;;;;;3.58;0.60;;;14.80;90.20;;;;;;5061115;28;20024;-79
2022/09/18 12:46:24;;;;;;;3.35;0.55;;;14.80;90.40;;;;;;5085033;28;20035;-80
2022/09/18 12:49:06;;;;;;;4.18;0.60;;;14.70;90.70;;;;;;4989357;28;20042;-81
2022/09/18 12:51:42;;;;;;;1.65;0.45;;;14.60;90.80;;;;;;5053073;28;20025;-82
2022/09/18 12:54:27;;;;;;;;;;;14.50;90.90;;;;;;5071797;28;20028;-83
2022/09/18 12:57:22;;;;;;;4.70;0.60;;;14.30;91.00;;;;;;5067420;28;20334;-82
2022/09/18 13:00:16;;;;;;;0.63;0.20;;;14.20;91.40;;;;;;5054280;28;20453;-81
2022/09/18 13:03:07;;;;;;;2.58;0.50;;;14.20;91.40;;;;;;5053813;28;20074;-80
2022/09/18 13:05:38;;;;;;;2.03;0.22;;;14.10;91.30;;;;;;5055685;28;20032;-82
2022/09/18 13:08:27;;;;;;;0.68;0.55;;;14.10;91.50;;;;;;5057760;28;20072;-81
2022/09/18 13:11:03;;;;;;;0.40;0.20;;;14.00;91.60;;;;;;5081614;28;20116;-81
2022/09/18 13:13:57;;;;;;;1.23;0.73;;;13.90;92.00;;;;;;5054651;28;20117;-81
2022/09/18 13:16:52;;;;;;;1.10;0.22;;;13.90;92.30;;;;;;5056031;28;20056;-80
2022/09/18 13:19:34;;;;;;;0.55;0.20;;;13.80;92.60;;;;;;5054375;28;20108;-80
2022/09/18 13:22:09;;;;;;;1.15;0.30;;;13.70;92.60;;;;;;5069520;28;20033;-80
2022/09/18 13:24:38;;;;;;;;;;;13.60;92.90;;;;;;5073183;28;20024;-80
2022/09/18 13:27:11;;;;;;;1.48;0.95;;;13.60;93.10;;;;;;5071532;28;20031;-78
2022/09/18 13:29:51;;;;;;;2.17;0.40;;;13.60;93.30;;;;;;5088147;28;20035;-81